createdAt,value
2022-09-04T00:02:14.141Z,3.78
2022-09-04T00:07:24.494Z,4.10
2022-09-04T00:12:33.327Z,4.72
2022-09-04T00:28:23.352Z,2.92
2022-09-04T00:34:04.249Z,3.35
2022-09-04T00:39:13.881Z,3.00
2022-09-04T00:44:21.704Z,3.28
2022-09-04T00:49:51.470Z,4.03
2022-09-04T00:55:04.906Z,4.47
2022-09-04T01:00:16.082Z,3.75
2022-09-04T01:05:56.531Z,3.72
2022-09-04T01:11:23.126Z,3.65
2022-09-04T01:16:36.083Z,4.95
2022-09-04T01:22:02.405Z,4.28
2022-09-04T01:27:32.890Z,4.10
2022-09-04T01:32:59.909Z,3.88
2022-09-04T01:38:03.634Z,3.70
2022-09-04T01:43:11.611Z,4.00
2022-09-04T01:48:20.548Z,3.45
2022-09-04T01:53:26.582Z,3.55
2022-09-04T01:58:41.726Z,3.55
2022-09-04T02:04:21.185Z,3.15
2022-09-04T02:09:55.963Z,3.80
2022-09-04T02:15:31.634Z,3.55
2022-09-04T02:20:33.905Z,2.92
2022-09-04T02:25:45.995Z,3.40
2022-09-04T02:31:18.471Z,3.40
2022-09-04T02:36:29.623Z,3.60
2022-09-04T02:41:58.285Z,3.42
2022-09-04T02:47:34.234Z,3.22
2022-09-04T02:53:08.287Z,2.97
2022-09-04T02:58:50.751Z,3.25
2022-09-04T03:04:09.091Z,2.90
2022-09-04T03:09:17.912Z,3.20
2022-09-04T03:14:34.447Z,3.13
2022-09-04T03:20:00.260Z,3.20
2022-09-04T03:25:11.406Z,2.80
2022-09-04T03:30:14.564Z,3.33
2022-09-04T03:35:25.856Z,3.42
2022-09-04T03:40:42.961Z,3.10
2022-09-04T03:45:53.334Z,3.20
2022-09-04T03:51:10.901Z,3.50
2022-09-04T03:56:49.870Z,3.63
2022-09-04T04:02:06.553Z,3.45
2022-09-04T04:07:32.986Z,3.33
2022-09-04T04:13:12.383Z,3.00
2022-09-04T04:18:32.629Z,3.37
2022-09-04T04:24:07.254Z,3.15
2022-09-04T04:29:40.903Z,3.83
2022-09-04T04:34:54.052Z,3.38
2022-09-04T04:40:15.277Z,3.47
2022-09-04T04:45:49.051Z,3.53
2022-09-04T04:51:18.755Z,3.35
2022-09-04T04:56:46.057Z,3.95
2022-09-04T05:02:16.798Z,3.85
2022-09-04T05:07:42.455Z,4.18
2022-09-04T05:13:21.742Z,3.63
2022-09-04T05:18:34.175Z,3.80
2022-09-04T05:23:50.861Z,3.50
2022-09-04T05:29:01.373Z,4.20
2022-09-04T05:34:22.326Z,4.20
2022-09-04T05:39:50.367Z,3.97
2022-09-04T05:44:57.963Z,4.28
2022-09-04T05:50:21.966Z,3.78
2022-09-04T05:55:48.177Z,4.80
2022-09-04T06:01:13.049Z,5.03
2022-09-04T06:06:20.103Z,4.57
2022-09-04T06:11:36.477Z,4.82
2022-09-04T06:17:04.693Z,4.75
2022-09-04T06:22:24.050Z,4.10
2022-09-04T06:27:37.823Z,3.37
2022-09-04T06:33:03.959Z,3.47
2022-09-04T06:38:11.311Z,3.40
2022-09-04T06:43:29.682Z,3.25
2022-09-04T06:48:40.435Z,3.00
2022-09-04T06:54:14.760Z,3.05
2022-09-04T07:00:02.526Z,2.47
2022-09-04T07:05:24.386Z,2.75
2022-09-04T07:10:35.303Z,2.92
2022-09-04T07:15:48.556Z,2.42
2022-09-04T07:21:11.410Z,2.28
2022-09-04T07:26:13.424Z,2.20
2022-09-04T07:31:38.396Z,2.72
2022-09-04T07:36:57.315Z,2.13
2022-09-04T07:42:15.097Z,2.10
2022-09-04T07:47:31.334Z,2.40
2022-09-04T07:53:03.701Z,2.33
2022-09-04T07:58:44.262Z,2.38
2022-09-04T08:04:11.662Z,2.13
2022-09-04T08:09:37.259Z,2.22
2022-09-04T08:14:53.253Z,2.38
2022-09-04T08:20:19.604Z,1.98
2022-09-04T08:25:30.166Z,1.92
2022-09-04T08:30:48.527Z,1.95
2022-09-04T08:36:00.644Z,2.08
2022-09-04T08:41:11.127Z,2.13
2022-09-04T08:47:07.569Z,2.08
2022-09-04T08:52:33.973Z,1.70
2022-09-04T08:58:20.183Z,1.63
2022-09-04T09:03:50.099Z,1.80
2022-09-04T09:09:19.446Z,1.58
2022-09-04T09:14:39.429Z,1.50
2022-09-04T09:19:44.072Z,1.63
2022-09-04T09:25:22.652Z,1.92
2022-09-04T09:30:25.117Z,1.98
2022-09-04T09:35:57.908Z,1.55
2022-09-04T09:41:17.935Z,1.23
2022-09-04T09:46:22.427Z,1.00
2022-09-04T09:51:58.977Z,1.08
2022-09-04T09:57:33.774Z,1.30
2022-09-04T10:03:04.143Z,1.10
2022-09-04T10:08:44.341Z,1.00
2022-09-04T10:14:01.158Z,1.30
2022-09-04T10:19:24.897Z,1.20
2022-09-04T10:24:38.440Z,1.30
2022-09-04T10:29:53.833Z,1.20
2022-09-04T10:35:20.300Z,1.20
2022-09-04T10:40:43.738Z,1.88
2022-09-04T10:45:56.152Z,1.33
2022-09-04T10:51:22.011Z,1.20
2022-09-04T10:56:53.253Z,1.45
2022-09-04T11:01:57.740Z,1.60
2022-09-04T11:07:28.759Z,1.65
2022-09-04T11:13:09.137Z,1.67
2022-09-04T11:18:30.745Z,1.30
2022-09-04T11:24:08.647Z,1.42
2022-09-04T11:29:19.784Z,1.35
2022-09-04T11:34:39.710Z,0.93
2022-09-04T11:39:50.443Z,1.25
2022-09-04T11:45:33.897Z,1.20
2022-09-04T11:50:35.651Z,1.05
2022-09-04T11:55:49.521Z,0.90
2022-09-04T12:00:59.448Z,0.90
2022-09-04T12:06:16.151Z,0.85
2022-09-04T12:11:59.297Z,0.85
2022-09-04T12:17:15.521Z,1.10
2022-09-04T12:22:42.903Z,0.73
2022-09-04T12:28:24.169Z,0.90
2022-09-04T12:33:42.781Z,0.80
2022-09-04T12:39:01.417Z,0.80
2022-09-04T12:44:21.799Z,0.90
2022-09-04T12:49:48.773Z,0.88
2022-09-04T12:55:10.004Z,0.90
2022-09-04T13:00:15.598Z,0.80
2022-09-04T13:05:52.691Z,0.88
2022-09-04T13:11:20.016Z,0.90
2022-09-04T13:16:43.477Z,0.80
2022-09-04T13:21:56.558Z,0.90
2022-09-04T13:27:00.683Z,0.90
2022-09-04T13:32:10.278Z,0.80
2022-09-04T13:37:26.931Z,0.80
2022-09-04T13:42:47.707Z,1.00
2022-09-04T13:48:10.532Z,0.65
2022-09-04T13:53:52.362Z,1.00
2022-09-04T13:59:08.560Z,0.80
2022-09-04T14:04:16.873Z,0.90
2022-09-04T14:09:18.649Z,0.80
2022-09-04T14:15:03.109Z,0.88
2022-09-04T14:20:30.099Z,0.80
2022-09-04T14:25:37.721Z,1.00
2022-09-04T14:38:04.475Z,0.93
2022-09-04T14:43:33.576Z,0.88
2022-09-04T14:48:40.987Z,0.77
2022-09-04T14:53:49.656Z,0.93
2022-09-04T14:59:00.118Z,0.97
2022-09-04T15:04:12.752Z,1.10
2022-09-04T15:09:49.950Z,0.90
2022-09-04T15:15:03.149Z,0.93
2022-09-04T15:20:15.245Z,0.85
2022-09-04T15:25:18.797Z,1.10
2022-09-04T15:30:29.857Z,1.05
2022-09-04T15:35:33.878Z,1.00
2022-09-04T15:41:15.162Z,1.25
2022-09-04T15:46:17.959Z,1.07
2022-09-04T15:51:37.143Z,0.90
2022-09-04T15:56:57.254Z,1.00
2022-09-04T16:02:36.380Z,1.02
2022-09-04T16:08:06.742Z,0.95
2022-09-04T16:13:25.497Z,0.88
2022-09-04T16:18:46.751Z,1.20
2022-09-04T16:23:49.719Z,1.00
2022-09-04T16:29:17.855Z,0.93
2022-09-04T16:34:32.854Z,1.15
2022-09-04T16:40:21.122Z,1.00
2022-09-04T16:45:30.116Z,0.90
2022-09-04T16:51:39.138Z,1.00
2022-09-04T17:03:37.997Z,1.20
2022-09-04T17:15:58.060Z,1.10
2022-09-04T17:23:43.061Z,0.90
2022-09-04T17:29:08.801Z,0.90
2022-09-04T17:36:09.328Z,0.93
2022-09-04T17:40:51.888Z,0.90
2022-09-04T17:44:04.605Z,0.93
2022-09-04T17:49:20.719Z,1.08
2022-09-04T17:54:27.154Z,1.00
2022-09-04T17:59:46.729Z,1.10
2022-09-04T18:04:54.382Z,1.33
2022-09-04T18:09:59.082Z,1.23
2022-09-04T18:15:33.428Z,1.65
2022-09-04T18:20:47.111Z,1.40
2022-09-04T18:26:05.418Z,1.27
2022-09-04T18:37:10.884Z,2.00
2022-09-04T18:37:17.022Z,1.77
2022-09-04T18:49:15.953Z,1.85
2022-09-04T18:50:44.115Z,1.77
2022-09-04T18:53:56.700Z,1.65
2022-09-04T18:59:10.351Z,1.65
2022-09-04T19:04:51.997Z,1.52
2022-09-04T19:10:09.331Z,1.40
2022-09-04T19:15:53.843Z,1.40
2022-09-04T19:20:55.518Z,1.50
2022-09-04T19:26:07.083Z,1.50
2022-09-04T19:31:17.599Z,1.60
2022-09-04T19:36:32.316Z,1.60
2022-09-04T19:45:36.221Z,1.70
2022-09-04T19:47:27.623Z,1.40
2022-09-04T19:53:30.343Z,1.77
2022-09-04T19:58:27.087Z,1.63
2022-09-04T20:03:38.354Z,1.90
2022-09-04T20:08:45.294Z,1.90
2022-09-04T20:14:25.694Z,1.70
2022-09-04T20:19:39.563Z,1.60
2022-09-04T20:25:01.530Z,1.70
2022-09-04T20:30:13.626Z,1.83
2022-09-04T20:35:41.413Z,2.22
2022-09-04T20:40:51.844Z,2.00
2022-09-04T20:48:36.317Z,1.80
2022-09-04T20:52:58.421Z,2.33
2022-09-04T21:01:16.384Z,2.50
2022-09-04T21:03:37.821Z,2.03
2022-09-04T21:08:56.996Z,1.98
2022-09-04T21:14:11.470Z,2.20
2022-09-04T21:19:29.719Z,2.17
2022-09-04T21:24:38.395Z,2.20
2022-09-04T21:29:49.022Z,1.80
2022-09-04T21:34:56.957Z,2.55
2022-09-04T21:40:50.983Z,1.90
2022-09-04T21:46:18.684Z,1.80
2022-09-04T21:51:54.821Z,2.03
2022-09-04T22:02:27.595Z,2.00
2022-09-04T22:02:52.858Z,2.00
2022-09-04T22:12:18.236Z,2.00
2022-09-04T22:13:49.755Z,2.30
2022-09-04T22:19:30.588Z,2.53
2022-09-04T22:24:58.748Z,2.05
2022-09-04T22:30:09.455Z,2.30
2022-09-04T22:35:15.531Z,2.30
2022-09-04T22:40:23.595Z,2.08
2022-09-04T22:45:54.647Z,2.10
2022-09-04T22:51:14.453Z,2.30
2022-09-04T22:56:25.570Z,2.38
2022-09-04T23:01:43.810Z,1.85
2022-09-04T23:12:06.429Z,2.25
2022-09-04T23:13:58.173Z,2.50
2022-09-04T23:20:46.896Z,2.67
2022-09-04T23:26:42.873Z,3.03
2022-09-04T23:29:44.609Z,2.45
2022-09-04T23:35:15.118Z,2.47
2022-09-04T23:40:47.121Z,2.55
2022-09-04T23:46:14.254Z,2.30
2022-09-04T23:51:41.080Z,2.83
2022-09-04T23:56:46.366Z,2.50
